createdAt,value
2018-08-19T00:02:36.978Z,18.00
2018-08-19T00:07:40.173Z,18.00
2018-08-19T00:12:46.187Z,18.10
2018-08-19T00:17:49.335Z,18.20
2018-08-19T00:22:52.506Z,18.20
2018-08-19T00:27:55.682Z,18.20
2018-08-19T00:32:58.864Z,18.10
2018-08-19T00:38:02.353Z,17.80
2018-08-19T00:43:05.526Z,17.90
2018-08-19T00:48:10.331Z,18.00
2018-08-19T00:53:13.515Z,18.10
2018-08-19T00:58:19.883Z,18.00
2018-08-19T01:03:23.098Z,18.00
2018-08-19T01:08:26.277Z,18.00
2018-08-19T01:13:29.463Z,17.90
2018-08-19T01:18:32.622Z,17.90
2018-08-19T01:23:35.849Z,17.90
2018-08-19T01:28:43.448Z,18.00
2018-08-19T01:33:46.634Z,17.90
2018-08-19T01:38:50.191Z,17.90
2018-08-19T01:44:03.763Z,17.90
2018-08-19T01:49:08.665Z,17.80
2018-08-19T01:54:17.174Z,17.60
2018-08-19T01:59:20.374Z,17.30
2018-08-19T02:04:23.531Z,17.10
2018-08-19T02:09:26.717Z,16.90
2018-08-19T02:14:29.898Z,16.70
2018-08-19T02:19:33.067Z,16.60
2018-08-19T02:24:36.223Z,16.40
2018-08-19T02:29:39.395Z,16.10
2018-08-19T02:34:44.318Z,15.90
2018-08-19T02:39:49.403Z,16.00
2018-08-19T02:44:58.118Z,15.70
2018-08-19T02:50:01.327Z,15.60
2018-08-19T02:55:06.085Z,15.80
2018-08-19T03:00:10.663Z,15.70
2018-08-19T03:05:14.834Z,15.70
2018-08-19T03:10:18.267Z,15.60
2018-08-19T03:15:21.456Z,15.60
2018-08-19T03:20:24.606Z,15.70
2018-08-19T03:25:28.223Z,15.50
2018-08-19T03:30:31.382Z,15.40
2018-08-19T03:35:35.459Z,15.60
2018-08-19T03:40:38.615Z,15.50
2018-08-19T03:45:42.121Z,15.50
2018-08-19T03:50:45.294Z,15.40
2018-08-19T03:55:48.472Z,15.40
2018-08-19T04:00:51.624Z,15.40
2018-08-19T04:05:59.088Z,15.20
2018-08-19T04:11:06.164Z,15.30
2018-08-19T04:16:10.584Z,15.30
2018-08-19T04:21:15.953Z,15.20
2018-08-19T04:26:19.632Z,15.10
2018-08-19T04:31:22.812Z,15.20
2018-08-19T04:36:25.986Z,15.10
2018-08-19T04:41:29.161Z,15.10
2018-08-19T04:46:32.353Z,15.40
2018-08-19T04:51:35.551Z,15.60
2018-08-19T04:56:38.770Z,16.00
2018-08-19T05:01:41.984Z,16.20
2018-08-19T05:06:45.170Z,16.10
2018-08-19T05:11:48.358Z,16.30
2018-08-19T05:16:51.566Z,16.60
2018-08-19T05:21:58.978Z,16.90
2018-08-19T05:27:06.651Z,17.10
2018-08-19T05:32:13.426Z,17.30
2018-08-19T05:37:16.606Z,17.40
2018-08-19T05:42:19.898Z,17.70
2018-08-19T05:47:23.102Z,18.00
2018-08-19T05:52:26.281Z,18.40
2018-08-19T05:57:30.871Z,18.80
2018-08-19T06:02:39.442Z,19.40
2018-08-19T06:07:42.786Z,19.80
2018-08-19T06:12:45.864Z,19.50
2018-08-19T06:17:49.077Z,19.50
2018-08-19T06:22:52.611Z,20.70
2018-08-19T06:27:56.862Z,22.60
2018-08-19T06:33:00.051Z,23.60
2018-08-19T06:38:03.237Z,24.60
2018-08-19T06:43:06.435Z,25.80
2018-08-19T06:48:11.033Z,26.20
2018-08-19T06:53:19.677Z,27.20
2018-08-19T06:58:23.411Z,27.30
2018-08-19T07:03:26.818Z,27.30
2018-08-19T07:08:29.860Z,27.50
2018-08-19T07:13:33.010Z,28.10
2018-08-19T07:18:36.306Z,28.20
2018-08-19T07:23:39.450Z,28.90
2018-08-19T07:28:42.614Z,29.10
2018-08-19T07:33:45.871Z,28.50
2018-08-19T07:38:49.022Z,28.10
2018-08-19T07:43:52.299Z,28.30
2018-08-19T07:48:55.444Z,28.00
2018-08-19T07:53:58.773Z,29.00
2018-08-19T07:59:07.307Z,28.70
2018-08-19T08:04:10.931Z,27.50
2018-08-19T08:09:14.179Z,28.00
2018-08-19T08:14:17.469Z,28.70
2018-08-19T08:19:20.667Z,28.40
2018-08-19T08:24:23.883Z,28.40
2018-08-19T08:29:27.066Z,27.60
2018-08-19T08:34:30.235Z,27.60
2018-08-19T08:39:34.683Z,26.10
2018-08-19T08:44:37.944Z,27.50
2018-08-19T08:49:47.524Z,26.40
2018-08-19T08:54:59.558Z,26.50
2018-08-19T09:00:02.730Z,27.10
2018-08-19T09:05:09.067Z,27.60
2018-08-19T09:10:13.241Z,29.20
2018-08-19T09:15:16.503Z,27.90
2018-08-19T09:20:20.402Z,25.80
2018-08-19T09:25:23.578Z,27.60
2018-08-19T09:30:36.327Z,28.80
2018-08-19T09:35:40.919Z,26.90
2018-08-19T09:40:45.331Z,25.50
2018-08-19T09:45:48.900Z,24.80
2018-08-19T09:50:53.065Z,25.10
2018-08-19T09:56:05.547Z,26.30
2018-08-19T10:01:14.629Z,25.40
2018-08-19T10:06:17.793Z,25.10
2018-08-19T10:11:21.023Z,25.10
2018-08-19T10:16:45.508Z,26.40
2018-08-19T10:21:48.672Z,28.10
2018-08-19T10:26:52.497Z,28.70
2018-08-19T10:32:01.866Z,27.90
2018-08-19T10:37:05.642Z,27.50
2018-08-19T10:42:20.322Z,28.50
2018-08-19T10:47:23.504Z,28.00
2018-08-19T10:52:28.110Z,27.40
2018-08-19T10:57:31.270Z,27.20
2018-08-19T11:02:34.457Z,27.40
2018-08-19T11:07:37.654Z,27.40
2018-08-19T11:12:41.160Z,27.60
2018-08-19T11:17:44.451Z,27.90
2018-08-19T11:22:47.642Z,27.10
2018-08-19T11:27:50.903Z,27.00
2018-08-19T11:32:54.070Z,28.10
2018-08-19T11:37:57.266Z,28.70
2018-08-19T11:43:00.446Z,28.00
2018-08-19T11:48:03.642Z,27.00
2018-08-19T11:53:06.893Z,26.50
2018-08-19T11:58:10.079Z,26.40
2018-08-19T12:03:13.270Z,26.10
2018-08-19T12:08:16.434Z,25.80
2018-08-19T12:13:19.607Z,25.80
2018-08-19T12:18:22.819Z,25.80
2018-08-19T12:23:26.003Z,26.10
2018-08-19T12:28:29.172Z,26.20
2018-08-19T12:33:32.358Z,25.80
2018-08-19T12:38:35.563Z,25.50
2018-08-19T12:43:40.908Z,25.20
2018-08-19T12:48:44.091Z,25.60
2018-08-19T12:53:47.848Z,25.40
2018-08-19T12:58:51.055Z,25.30
2018-08-19T13:03:54.609Z,25.40
2018-08-19T13:08:57.779Z,25.20
2018-08-19T13:14:01.094Z,25.20
2018-08-19T13:19:04.711Z,25.30
2018-08-19T13:24:08.095Z,25.60
2018-08-19T13:29:11.920Z,25.40
2018-08-19T13:34:15.479Z,25.30
2018-08-19T13:39:18.675Z,25.40
2018-08-19T13:44:21.933Z,25.50
2018-08-19T13:49:27.322Z,25.70
2018-08-19T13:54:30.771Z,25.70
2018-08-19T13:59:34.221Z,25.60
2018-08-19T14:04:37.422Z,25.50
2018-08-19T14:09:40.588Z,25.20
2018-08-19T14:14:43.989Z,25.40
2018-08-19T14:19:47.174Z,25.40
2018-08-19T14:24:50.528Z,25.70
2018-08-19T14:29:53.730Z,25.90
2018-08-19T14:34:58.333Z,25.60
2018-08-19T14:40:02.643Z,25.60
2018-08-19T14:45:06.085Z,25.60
2018-08-19T14:50:13.009Z,25.60
2018-08-19T14:55:17.720Z,25.70
2018-08-19T15:00:21.199Z,25.60
2018-08-19T15:05:24.447Z,25.50
2018-08-19T15:10:27.710Z,25.40
2018-08-19T15:15:31.098Z,25.30
2018-08-19T15:20:36.544Z,25.20
2018-08-19T15:25:40.411Z,25.30
2018-08-19T15:30:43.640Z,25.40
2018-08-19T15:35:46.859Z,25.50
2018-08-19T15:40:50.252Z,25.40
2018-08-19T15:45:53.467Z,25.60
2018-08-19T15:51:00.911Z,25.60
2018-08-19T15:56:04.168Z,25.60
2018-08-19T16:01:18.855Z,25.50
2018-08-19T16:06:22.545Z,25.40
2018-08-19T16:11:25.912Z,25.30
2018-08-19T16:16:29.123Z,25.30
2018-08-19T16:21:32.591Z,25.40
2018-08-19T16:26:36.023Z,25.30
2018-08-19T16:31:39.431Z,25.30
2018-08-19T16:36:42.878Z,25.30
2018-08-19T16:41:46.150Z,25.20
2018-08-19T16:46:49.594Z,25.10
2018-08-19T16:51:53.025Z,25.20
2018-08-19T16:56:56.298Z,25.20
2018-08-19T17:01:59.593Z,25.20
2018-08-19T17:07:02.803Z,25.10
2018-08-19T17:12:06.160Z,25.00
2018-08-19T17:17:09.622Z,24.90
2018-08-19T17:22:13.056Z,24.70
2018-08-19T17:27:16.510Z,24.60
2018-08-19T17:32:19.904Z,24.40
2018-08-19T17:37:23.175Z,24.10
2018-08-19T17:42:26.510Z,23.90
2018-08-19T17:47:29.886Z,23.80
2018-08-19T17:52:33.363Z,23.60
2018-08-19T17:57:36.666Z,23.70
2018-08-19T18:02:39.850Z,23.60
2018-08-19T18:07:44.331Z,23.60
2018-08-19T18:12:47.994Z,23.50
2018-08-19T18:17:58.443Z,23.40
2018-08-19T18:23:01.640Z,23.40
2018-08-19T18:28:10.778Z,23.40
2018-08-19T18:33:13.978Z,23.30
2018-08-19T18:38:28.847Z,23.40
2018-08-19T18:43:32.931Z,23.30
2018-08-19T18:48:36.147Z,23.20
2018-08-19T18:53:40.212Z,23.10
2018-08-19T18:58:43.418Z,23.10
2018-08-19T19:03:46.555Z,23.10
2018-08-19T19:08:49.802Z,23.10
2018-08-19T19:13:53.037Z,23.00
2018-08-19T19:18:56.262Z,23.00
2018-08-19T19:23:59.428Z,22.90
2018-08-19T19:29:06.322Z,22.80
2018-08-19T19:34:14.170Z,22.70
2018-08-19T19:39:17.394Z,22.70
2018-08-19T19:44:28.773Z,22.50
2018-08-19T19:49:32.046Z,22.50
2018-08-19T19:54:35.198Z,22.60
2018-08-19T19:59:38.360Z,22.40
2018-08-19T20:04:41.532Z,22.40
2018-08-19T20:09:44.801Z,22.20
2018-08-19T20:14:50.599Z,22.00
2018-08-19T20:19:53.794Z,22.00
2018-08-19T20:24:56.991Z,22.00
2018-08-19T20:30:00.184Z,22.10
2018-08-19T20:35:03.368Z,22.20
2018-08-19T20:40:07.454Z,22.10
2018-08-19T20:45:10.616Z,22.10
2018-08-19T20:50:14.793Z,22.20
2018-08-19T20:55:18.432Z,22.10
2018-08-19T21:00:21.654Z,22.10
2018-08-19T21:05:24.875Z,22.10
2018-08-19T21:10:28.135Z,22.10
2018-08-19T21:15:36.181Z,22.10
2018-08-19T21:20:39.433Z,22.00
2018-08-19T21:25:50.417Z,21.90
2018-08-19T21:30:53.612Z,21.90
2018-08-19T21:35:57.135Z,21.90
2018-08-19T21:41:00.366Z,21.90
2018-08-19T21:46:03.588Z,21.80
2018-08-19T21:51:06.902Z,21.80
2018-08-19T21:56:10.096Z,21.80
2018-08-19T22:01:18.731Z,21.80
2018-08-19T22:06:21.976Z,21.60
2018-08-19T22:11:25.150Z,21.40
2018-08-19T22:16:28.311Z,21.40
2018-08-19T22:21:31.524Z,21.30
2018-08-19T22:26:34.721Z,21.20
2018-08-19T22:31:37.944Z,21.20
2018-08-19T22:36:41.131Z,21.10
2018-08-19T22:41:46.326Z,21.10
2018-08-19T22:46:49.498Z,21.00
2018-08-19T22:51:52.742Z,20.90
2018-08-19T22:56:55.939Z,20.80
2018-08-19T23:01:59.151Z,20.80
2018-08-19T23:07:02.337Z,20.70
2018-08-19T23:12:05.523Z,20.70
2018-08-19T23:17:08.908Z,20.80
2018-08-19T23:22:12.074Z,20.70
2018-08-19T23:27:15.330Z,20.70
2018-08-19T23:32:18.493Z,20.60
2018-08-19T23:37:21.676Z,20.60
2018-08-19T23:42:24.862Z,20.60
2018-08-19T23:47:28.042Z,20.70
2018-08-19T23:52:31.217Z,20.50
2018-08-19T23:57:34.427Z,20.50
